Onde está Póvoa dos Três en Portugal?

Póvoa dos Três está situado na região Santarem em Portugal!

Buscar o nome de uma cidade:

Póvoa, Povoletto, Povoença, Póvoa de Santa Iria, Póvoa da Raposeira

Aqui você vai encontrar a localização de Póvoa dos Três em um mapa.
Para ver como ele atualmente parece, abaixo estão algumas fotos da região, com webcams online.
Você também pode encontrar a distância para as principais cidades da região e de cidades do resto do Portugal.

Todos os lugares do mundo chamado .

new

Onde está Póvoa dos Três no mapa?


Webcams perto Póvoa dos Três

Caldas da Rainha.


Caldas da Rainha - Dia
Actual
Caldas da Rainha - Actual

Vasco Carão > South: Garrocheira, Benavente - Airport.


Vasco Carão > South: Garrocheira, Benavente - Airport - Dia
Actual
Vasco Carão > South: Garrocheira, Benavente - Airport - Actual

Benavente > North-East: AIrport, METAR: BENAV 180005Z 36004KT 17/14 Q1015.


Benavente > North-East: AIrport, METAR: BENAV 180005Z 36004KT 17/14 Q1015 - Dia
Actual
Benavente > North-East: AIrport, METAR: BENAV 180005Z 36004KT 17/14 Q1015 - Actual

Webcams provided by webcams.travel

Distâncias

Onde está Póvoa dos Três em relação a outros lugares?

Top 10 cidades em Santarem e distância de Póvoa dos Três.

Cidade#Populaçãokmmilhas
Santarém129385138
Entroncamento2198873220
Tomar3191684729
Torres Novas4145262918
Samora Correia5141544226
Abrantes6136465333
Ourém7127294025
Rio Maior812064138
Fátima9117983522
Almeirim10115561912

Top 10 cidades em Portugal e distância de Póvoa dos Três.

Cidade # Populaçãokmmilhas
Lisbon15177987245
Porto2249630204127
Amadora31788567245
Braga4121393251156
Setúbal51171098754
Coimbra610658010565
Queluz71033987446
Funchal8980411041647
Vila Nova de Gaia970810203126
Loures10662306339